Time;durP1;ratioP1;P1;durP2;ratioP2;P2;SDS_P1;SDS_P2;PMS_P1;PMS_P2;Temp;Humidity;BMP_temperature;BMP_pressure;BME280_temperature;BME280_humidity;BME280_pressure;Samples;Min_cycle;Max_cycle;Signal;HPM_P1;HPM_P2
2023/08/03 00:04:19;;;;;;;2.28;2.10;;;;;;;16.79;100.00;98853.69;10298580;28;20111;-70
2023/08/03 00:09:19;;;;;;;20.00;4.07;;;;;;;16.81;100.00;98861.59;10298788;28;20077;-70
2023/08/03 00:14:20;;;;;;;3.72;2.22;;;;;;;16.80;100.00;98866.25;10282467;28;20034;-70
2023/08/03 00:19:20;;;;;;;5.05;3.00;;;;;;;16.83;100.00;98884.78;10299417;28;20035;-69
2023/08/03 00:24:20;;;;;;;4.43;2.45;;;;;;;16.85;100.00;98888.06;10283648;28;20046;-70
2023/08/03 00:29:21;;;;;;;18.42;2.83;;;;;;;16.89;100.00;98893.78;10280534;28;20390;-69
2023/08/03 00:34:21;;;;;;;8.73;4.20;;;;;;;16.84;100.00;98897.34;10297890;28;20042;-71
2023/08/03 00:39:22;;;;;;;6.13;3.42;;;;;;;16.72;100.00;98902.38;10297645;28;20047;-70
2023/08/03 00:44:22;;;;;;;13.70;4.70;;;;;;;16.62;100.00;98911.44;10280006;28;20129;-69
2023/08/03 00:49:27;;;;;;;4.53;3.97;;;;;;;16.66;100.00;98909.00;10263775;28;20070;-70
2023/08/03 00:54:28;;;;;;;7.85;5.10;;;;;;;16.74;100.00;98914.63;10298213;28;20077;-69
2023/08/03 00:59:28;;;;;;;6.93;5.18;;;;;;;16.74;100.00;98920.09;10296293;28;20097;-69
2023/08/03 01:04:28;;;;;;;15.05;3.90;;;;;;;16.72;100.00;98933.25;10280414;28;20097;-70
2023/08/03 01:09:29;;;;;;;10.73;3.80;;;;;;;16.74;100.00;98932.94;10279342;28;20113;-69
2023/08/03 01:14:29;;;;;;;6.93;4.60;;;;;;;16.66;100.00;98934.41;10296010;28;20035;-69
2023/08/03 01:19:30;;;;;;;8.88;3.30;;;;;;;16.70;100.00;98929.97;10279485;28;20036;-70
2023/08/03 01:24:30;;;;;;;11.98;3.25;;;;;;;16.72;100.00;98938.72;10295952;28;20069;-70
2023/08/03 01:29:30;;;;;;;18.67;4.10;;;;;;;16.66;100.00;98937.13;10278185;28;20479;-70
2023/08/03 01:34:31;;;;;;;3.85;3.17;;;;;;;16.67;100.00;98943.41;10297653;28;20035;-70
2023/08/03 01:39:31;;;;;;;5.85;3.35;;;;;;;16.70;100.00;98942.84;10261784;28;20042;-70
2023/08/03 01:44:32;;;;;;;9.10;4.18;;;;;;;16.69;100.00;98955.69;10294563;28;20039;-70
2023/08/03 01:49:33;;;;;;;6.45;4.20;;;;;;;16.70;100.00;98948.31;10295253;28;20026;-70
2023/08/03 01:54:33;;;;;;;8.73;4.07;;;;;;;16.67;100.00;98952.41;10294682;28;20070;-70
2023/08/03 01:59:33;;;;;;;6.15;3.30;;;;;;;16.62;100.00;98963.38;10294706;28;20483;-70
2023/08/03 02:04:34;;;;;;;2.42;2.33;;;;;;;16.56;100.00;98958.22;10294272;28;20047;-69
2023/08/03 02:09:34;;;;;;;2.80;2.40;;;;;;;16.52;100.00;98958.00;10276007;28;20042;-69
2023/08/03 02:14:35;;;;;;;3.33;1.90;;;;;;;16.52;100.00;98952.53;10293677;28;20070;-70
2023/08/03 02:19:37;;;;;;;5.63;2.75;;;;;;;16.49;100.00;98953.91;10293384;28;20035;-69
2023/08/03 02:24:37;;;;;;;16.38;2.35;;;;;;;16.47;100.00;98956.13;10293683;28;20038;-68
2023/08/03 02:29:37;;;;;;;1.45;1.35;;;;;;;16.40;100.00;98961.09;10292885;28;20471;-68
2023/08/03 02:34:38;;;;;;;1.77;1.55;;;;;;;16.24;100.00;98974.03;10293624;28;20043;-69
2023/08/03 02:39:38;;;;;;;2.38;1.75;;;;;;;16.17;100.00;98975.41;10294329;28;20051;-69
2023/08/03 02:44:38;;;;;;;2.17;2.08;;;;;;;16.26;100.00;98985.47;10292458;28;20542;-70
2023/08/03 02:49:39;;;;;;;6.00;2.75;;;;;;;16.35;100.00;98993.91;10292957;28;20070;-69
2023/08/03 02:54:39;;;;;;;3.38;2.45;;;;;;;16.43;100.00;99001.50;10276064;28;20039;-69
2023/08/03 02:59:40;;;;;;;9.90;3.85;;;;;;;16.49;100.00;99007.72;10275535;28;20475;-69
2023/08/03 03:04:40;;;;;;;6.60;2.38;;;;;;;16.48;100.00;99015.13;10274863;28;20471;-70
2023/08/03 03:09:41;;;;;;;14.50;3.78;;;;;;;16.39;100.00;99021.47;10291309;28;20046;-70
2023/08/03 03:14:41;;;;;;;10.23;3.58;;;;;;;16.33;100.00;99026.13;10291072;28;20118;-70
2023/08/03 03:19:41;;;;;;;16.90;3.22;;;;;;;16.27;100.00;99038.16;10292590;28;20470;-70
2023/08/03 03:24:42;;;;;;;9.13;2.45;;;;;;;16.25;100.00;99043.13;10300669;28;20122;-70
2023/08/03 03:29:42;;;;;;;7.90;2.50;;;;;;;16.27;100.00;99052.66;10304909;28;20081;-70
2023/08/03 03:34:43;;;;;;;3.05;2.42;;;;;;;16.32;100.00;99054.53;10304497;28;20073;-70
2023/08/03 03:39:43;;;;;;;4.55;2.72;;;;;;;16.38;100.00;99069.00;10282672;28;20098;-71
2023/08/03 03:44:43;;;;;;;2.13;1.70;;;;;;;16.39;100.00;99068.72;10300910;28;20046;-70
2023/08/03 03:49:44;;;;;;;17.30;3.58;;;;;;;16.37;100.00;99068.19;10300184;28;20054;-71
2023/08/03 03:54:45;;;;;;;8.55;3.63;;;;;;;16.39;100.00;99078.81;10299327;28;20463;-69
2023/08/03 03:59:45;;;;;;;10.32;4.43;;;;;;;16.36;100.00;99088.41;10282468;28;20034;-69
2023/08/03 04:04:46;;;;;;;7.45;3.88;;;;;;;16.32;100.00;99105.63;10299243;28;20042;-69
2023/08/03 04:09:46;;;;;;;18.85;5.63;;;;;;;16.26;100.00;99104.84;10300274;28;20035;-70
2023/08/03 04:14:46;;;;;;;18.38;6.07;;;;;;;16.25;100.00;99123.13;10298861;28;20074;-69
2023/08/03 04:19:47;;;;;;;10.85;3.95;;;;;;;16.24;100.00;99129.72;10297083;28;20043;-70
2023/08/03 04:24:47;;;;;;;17.17;5.13;;;;;;;16.22;100.00;99136.53;10280168;28;20073;-71
2023/08/03 04:29:48;;;;;;;13.02;4.00;;;;;;;16.18;100.00;99143.66;10298988;28;20038;-69
2023/08/03 04:34:48;;;;;;;22.83;6.38;;;;;;;16.18;100.00;99147.19;10297836;28;20038;-71
2023/08/03 04:39:49;;;;;;;14.57;4.57;;;;;;;16.16;100.00;99154.03;10280249;28;20059;-70
2023/08/03 04:44:49;;;;;;;9.27;4.00;;;;;;;16.10;100.00;99147.75;10297452;28;20118;-71
2023/08/03 04:49:50;;;;;;;31.88;4.45;;;;;;;16.12;100.00;99161.16;10298460;28;20129;-70
2023/08/03 04:54:50;;;;;;;11.43;4.25;;;;;;;16.12;100.00;99158.41;10297082;28;20038;-69
2023/08/03 04:59:51;;;;;;;18.40;5.03;;;;;;;16.10;100.00;99169.59;10296627;28;20505;-69
2023/08/03 05:04:51;;;;;;;15.15;5.00;;;;;;;16.11;100.00;99178.59;10296741;28;20054;-69
2023/08/03 05:09:52;;;;;;;9.07;4.50;;;;;;;16.14;100.00;99178.88;10295145;28;20031;-70
2023/08/03 05:14:52;;;;;;;6.80;3.00;;;;;;;16.09;100.00;99184.34;10296278;28;20105;-70
2023/08/03 05:19:53;;;;;;;10.88;4.40;;;;;;;16.14;100.00;99188.97;10279501;28;20452;-70
2023/08/03 05:24:53;;;;;;;5.50;3.38;;;;;;;16.14;100.00;99175.31;10296052;28;20398;-70
2023/08/03 05:29:55;;;;;;;8.52;3.47;;;;;;;16.14;100.00;99184.31;10295558;28;20090;-69
2023/08/03 05:34:55;;;;;;;13.93;5.55;;;;;;;16.21;100.00;99192.25;10295573;28;20039;-70
2023/08/03 05:39:56;;;;;;;10.57;4.40;;;;;;;16.29;100.00;99191.69;10277340;28;20054;-69
2023/08/03 05:44:56;;;;;;;18.83;4.95;;;;;;;16.40;100.00;99203.38;10277526;28;20099;-70
2023/08/03 05:49:56;;;;;;;12.80;5.57;;;;;;;16.52;100.00;99199.25;10276979;28;20121;-69
2023/08/03 05:54:57;;;;;;;9.50;4.70;;;;;;;16.66;100.00;99221.34;10294814;28;20035;-70
2023/08/03 05:59:57;;;;;;;11.68;5.00;;;;;;;16.74;100.00;99217.22;10278010;28;20094;-70
2023/08/03 06:04:58;;;;;;;12.02;4.47;;;;;;;16.78;100.00;99228.44;10294142;28;20074;-70
2023/08/03 06:09:58;;;;;;;10.02;4.30;;;;;;;16.83;100.00;99247.56;10300951;28;20039;-71
2023/08/03 06:14:58;;;;;;;26.30;12.05;;;;;;;16.88;100.00;99251.13;10265511;28;20467;-70
2023/08/03 06:19:59;;;;;;;14.40;6.63;;;;;;;16.98;100.00;99274.03;10276554;28;20046;-71
2023/08/03 06:24:59;;;;;;;20.08;5.93;;;;;;;17.06;100.00;99277.00;10293820;28;20031;-69
2023/08/03 06:30:00;;;;;;;17.38;5.38;;;;;;;17.20;100.00;99288.16;10276031;28;20035;-71
2023/08/03 06:35:00;;;;;;;9.60;3.58;;;;;;;17.20;100.00;99310.06;10295324;28;20043;-70
2023/08/03 06:40:00;;;;;;;17.13;5.13;;;;;;;17.27;100.00;99318.78;10293864;28;20050;-70
2023/08/03 06:45:01;;;;;;;14.40;4.45;;;;;;;17.32;100.00;99343.34;10276544;28;20038;-70
2023/08/03 06:50:02;;;;;;;11.75;4.25;;;;;;;17.51;100.00;99362.69;10292136;28;20027;-69
2023/08/03 06:55:02;;;;;;;8.07;3.90;;;;;;;17.49;100.00;99364.91;10290330;28;20138;-70
2023/08/03 07:00:03;;;;;;;10.05;4.35;;;;;;;17.58;100.00;99392.50;10275053;28;20038;-70
2023/08/03 07:05:04;;;;;;;5.53;3.67;;;;;;;17.71;100.00;99400.13;10288071;28;20444;-69
2023/08/03 07:10:06;;;;;;;11.57;3.75;;;;;;;18.03;100.00;99418.06;10297446;28;20039;-71
2023/08/03 07:15:07;;;;;;;4.03;3.17;;;;;;;18.19;100.00;99430.56;10293391;28;20102;-70
2023/08/03 07:20:08;;;;;;;9.52;2.97;;;;;;;18.18;100.00;99459.03;10297697;28;20031;-71
2023/08/03 07:25:08;;;;;;;12.70;3.63;;;;;;;18.43;100.00;99465.47;10284943;28;20058;-72
2023/08/03 07:30:09;;;;;;;7.22;2.45;;;;;;;18.66;100.00;99485.88;10301227;28;20150;-71
2023/08/03 07:35:09;;;;;;;12.00;3.72;;;;;;;18.58;100.00;99498.28;10281847;28;20035;-71
2023/08/03 07:40:10;;;;;;;8.80;2.88;;;;;;;18.50;100.00;99512.56;10303706;28;20059;-72
2023/08/03 07:45:10;;;;;;;13.77;3.10;;;;;;;20.92;100.00;99523.44;10308630;28;20035;-70
2023/08/03 07:50:11;;;;;;;7.80;2.70;;;;;;;21.53;100.00;99534.22;10303892;28;20046;-70
2023/08/03 07:55:11;;;;;;;6.72;2.85;;;;;;;21.17;100.00;99541.47;10304259;28;20047;-71
2023/08/03 08:00:12;;;;;;;15.73;2.92;;;;;;;20.36;100.00;99558.88;10304966;28;20050;-70
2023/08/03 08:05:12;;;;;;;3.10;2.33;;;;;;;20.29;100.00;99583.13;10285934;28;20031;-69
2023/08/03 08:10:13;;;;;;;3.53;2.55;;;;;;;20.60;100.00;99589.09;10293367;28;20038;-69
2023/08/03 08:15:13;;;;;;;11.00;3.05;;;;;;;21.79;100.00;99589.69;10309464;28;20094;-70
2023/08/03 08:20:14;;;;;;;11.95;2.95;;;;;;;21.11;100.00;99615.06;10309387;28;20122;-70
2023/08/03 08:25:14;;;;;;;19.92;4.97;;;;;;;20.31;100.00;99613.09;10307727;28;20554;-70
2023/08/03 08:30:15;;;;;;;10.02;3.53;;;;;;;19.58;100.00;99638.84;10301911;28;20039;-69
2023/08/03 08:35:15;;;;;;;9.55;3.72;;;;;;;18.86;100.00;99650.34;10301394;28;20426;-71
2023/08/03 08:40:15;;;;;;;11.63;4.18;;;;;;;18.63;100.00;99665.47;10301673;28;20182;-70
2023/08/03 08:45:16;;;;;;;19.70;6.15;;;;;;;18.66;100.00;99672.31;10299735;28;20050;-70
2023/08/03 08:50:16;;;;;;;11.23;3.42;;;;;;;19.62;100.00;99672.84;10298956;28;20386;-69
2023/08/03 08:55:21;;;;;;;13.32;4.38;;;;;;;20.10;100.00;99681.22;10280682;28;20031;-71
2023/08/03 09:00:26;;;;;;;14.85;4.22;;;;;;;20.60;100.00;99701.06;10282015;28;20035;-70
2023/08/03 09:05:26;;;;;;;3.53;3.13;;;;;;;21.19;100.00;99696.97;10297803;28;20445;-71
2023/08/03 09:10:27;;;;;;;12.00;4.43;;;;;;;22.61;100.00;99708.66;10283888;28;20126;-70
2023/08/03 09:15:37;;;;;;;6.90;3.20;;;;;;;23.23;100.00;99711.78;10311623;28;20039;-70
2023/08/03 09:20:38;;;;;;;3.30;2.28;;;;;;;21.58;100.00;99737.19;10293068;28;20154;-71
2023/08/03 09:25:50;;;;;;;3.38;2.17;;;;;;;21.17;100.00;99751.50;10306904;28;20125;-70
2023/08/03 09:30:50;;;;;;;4.20;2.33;;;;;;;20.64;100.00;99766.22;10290738;28;20090;-71
2023/08/03 09:36:10;;;;;;;15.85;2.75;;;;;;;20.26;100.00;99780.84;10308758;28;20094;-70
2023/08/03 09:41:12;;;;;;;7.30;2.08;;;;;;;19.57;100.00;99805.53;10307473;28;20101;-69
2023/08/03 09:46:13;;;;;;;3.47;1.95;;;;;;;19.18;100.00;99822.75;10304137;28;20034;-70
2023/08/03 09:51:13;;;;;;;3.78;2.03;;;;;;;18.79;100.00;99830.81;10303792;28;20446;-70
2023/08/03 09:56:17;;;;;;;5.15;1.75;;;;;;;18.61;100.00;99850.59;10284629;28;20074;-71
2023/08/03 10:01:22;;;;;;;7.35;2.53;;;;;;;18.89;100.00;99873.84;10280614;28;20037;-69
2023/08/03 10:06:26;;;;;;;4.87;2.43;;;;;;;19.60;100.00;99884.59;10297241;28;20073;-70
2023/08/03 10:11:29;;;;;;;9.25;2.60;;;;;;;19.03;100.00;99899.63;10294060;28;20497;-70
2023/08/03 10:16:33;;;;;;;5.57;2.78;;;;;;;18.20;100.00;99921.84;10277018;28;20050;-70
2023/08/03 10:21:34;;;;;;;5.38;3.80;;;;;;;17.68;100.00;99923.63;10294277;28;20481;-70
2023/08/03 10:26:34;;;;;;;9.80;5.55;;;;;;;17.34;100.00;99951.38;10276662;28;20038;-71
2023/08/03 10:31:54;;;;;;;10.32;5.60;;;;;;;17.14;100.00;99965.75;10291353;28;20035;-71
2023/08/03 10:36:56;;;;;;;9.63;4.80;;;;;;;17.07;100.00;99987.06;10275704;28;20125;-72
2023/08/03 10:41:57;;;;;;;4.25;3.65;;;;;;;17.23;100.00;99992.63;10275878;28;20443;-70
2023/08/03 10:46:58;;;;;;;9.23;5.18;;;;;;;17.14;100.00;100003.25;10260332;28;20031;-72
2023/08/03 10:52:20;;;;;;;15.82;5.60;;;;;;;17.04;100.00;100019.56;10293075;28;20031;-70
2023/08/03 10:57:24;;;;;;;10.30;4.00;;;;;;;17.09;100.00;100031.38;10292850;28;20414;-74
2023/08/03 11:02:30;;;;;;;14.05;6.40;;;;;;;17.24;100.00;100047.09;10293008;28;20038;-72
2023/08/03 11:07:36;;;;;;;17.80;5.90;;;;;;;17.31;100.00;100053.16;10276218;28;20125;-71
2023/08/03 11:12:36;;;;;;;12.73;5.57;;;;;;;17.34;100.00;100066.31;10293183;28;20113;-70
2023/08/03 11:17:37;;;;;;;20.38;5.68;;;;;;;17.61;100.00;100068.13;10274165;28;20030;-71
2023/08/03 11:22:37;;;;;;;8.45;4.63;;;;;;;18.24;100.00;100092.84;10274238;28;20041;-71
2023/08/03 11:27:41;;;;;;;9.70;4.57;;;;;;;18.71;100.00;100098.22;10292365;28;20086;-71
2023/08/03 11:32:41;;;;;;;10.20;4.07;;;;;;;18.86;100.00;100115.81;10291901;28;20039;-71
2023/08/03 11:37:41;;;;;;;11.82;3.65;;;;;;;18.86;100.00;100127.63;10294673;28;20055;-72
2023/08/03 11:42:43;;;;;;;15.43;3.95;;;;;;;19.04;100.00;100126.28;10296764;28;20403;-71
2023/08/03 11:47:46;;;;;;;9.65;4.32;;;;;;;18.81;100.00;100153.13;10298973;28;20081;-71
2023/08/03 11:52:47;;;;;;;23.05;6.43;;;;;;;18.90;100.00;100160.84;10281277;28;20106;-71
2023/08/03 11:58:07;;;;;;;7.65;4.88;;;;;;;19.10;100.00;100177.31;10299041;28;20035;-71
2023/08/03 12:03:08;;;;;;;18.02;4.82;;;;;;;19.08;100.00;100189.66;10299199;28;20023;-72
2023/08/03 12:08:08;;;;;;;7.35;4.18;;;;;;;19.18;100.00;100195.19;10298506;28;20530;-71
2023/08/03 12:13:09;;;;;;;6.68;3.75;;;;;;;19.72;100.00;100212.03;10281197;28;20047;-71
2023/08/03 12:18:09;;;;;;;5.82;2.50;;;;;;;19.53;100.00;100230.13;10299279;28;20031;-70
2023/08/03 12:23:10;;;;;;;4.97;3.03;;;;;;;19.29;100.00;100232.53;10299011;28;20425;-71
2023/08/03 12:28:10;;;;;;;14.30;3.67;;;;;;;19.42;100.00;100259.47;10297914;28;20549;-70
2023/08/03 12:33:11;;;;;;;7.22;3.63;;;;;;;19.55;100.00;100257.28;10297769;28;20077;-70
2023/08/03 12:38:11;;;;;;;6.78;4.45;;;;;;;19.58;100.00;100275.97;10279497;28;20095;-70
2023/08/03 12:43:12;;;;;;;12.25;3.88;;;;;;;19.68;100.00;100287.81;10296530;28;20047;-70
2023/08/03 12:48:12;;;;;;;11.15;3.30;;;;;;;19.72;100.00;100299.09;10297512;28;20396;-72
2023/08/03 12:53:13;;;;;;;5.70;2.40;;;;;;;19.73;100.00;100315.31;10295449;28;20062;-72
2023/08/03 12:58:13;;;;;;;3.50;2.38;;;;;;;19.89;100.00;100312.56;10295653;28;20060;-72
2023/08/03 13:03:14;;;;;;;3.15;2.30;;;;;;;20.68;100.00;100322.16;10296587;28;20041;-73
2023/08/03 13:08:16;;;;;;;7.85;3.15;;;;;;;21.81;100.00;100323.28;10295247;28;20348;-74
2023/08/03 13:13:18;;;;;;;6.80;2.25;;;;;;;21.52;100.00;100331.47;10297240;28;20062;-73
2023/08/03 13:18:19;;;;;;;4.15;2.53;;;;;;;20.92;100.00;100349.88;10295680;28;20120;-76
2023/08/03 13:23:19;;;;;;;10.50;2.80;;;;;;;21.05;100.00;100356.72;10278243;28;20077;-74
2023/08/03 13:28:19;;;;;;;5.55;2.92;;;;;;;21.41;100.00;100368.47;10295726;28;20035;-73
2023/08/03 13:33:20;;;;;;;5.32;3.20;;;;;;;21.93;100.00;100378.09;10294827;28;20074;-72
2023/08/03 13:38:21;;;;;;;7.32;3.15;;;;;;;21.87;100.00;100393.00;10295338;28;20057;-72
2023/08/03 13:43:21;;;;;;;4.18;2.28;;;;;;;21.39;100.00;100403.72;10295095;28;20027;-72
2023/08/03 13:48:22;;;;;;;6.80;3.40;;;;;;;21.43;100.00;100404.81;10278909;28;20035;-73
2023/08/03 13:53:22;;;;;;;13.70;4.30;;;;;;;21.09;100.00;100416.47;10293051;28;20073;-72
2023/08/03 13:58:23;;;;;;;7.80;4.07;;;;;;;20.70;100.00;100446.50;10294654;28;20053;-75
2023/08/03 14:03:23;;;;;;;12.77;3.35;;;;;;;20.38;100.00;100442.06;10295052;28;20093;-74
2023/08/03 14:08:23;;;;;;;14.70;5.00;;;;;;;20.29;100.00;100464.88;10295224;28;20078;-73
2023/08/03 14:13:24;;;;;;;12.23;3.65;;;;;;;20.41;100.00;100476.47;10296301;28;20039;-73
2023/08/03 14:18:24;;;;;;;11.73;2.83;;;;;;;20.90;100.00;100478.72;10277825;28;20523;-73
2023/08/03 14:23:25;;;;;;;7.68;2.80;;;;;;;20.96;100.00;100488.59;10276668;28;20078;-71
2023/08/03 14:28:25;;;;;;;8.00;3.13;;;;;;;21.23;100.00;100495.72;10293520;28;20478;-74
2023/08/03 14:33:25;;;;;;;3.42;2.85;;;;;;;21.08;100.00;100502.06;10292490;28;20117;-73
2023/08/03 14:38:27;;;;;;;4.70;2.10;;;;;;;20.89;100.00;100499.88;10293253;28;20050;-73
2023/08/03 14:43:27;;;;;;;8.88;2.83;;;;;;;20.89;100.00;100504.56;10293511;28;20328;-72
2023/08/03 14:48:28;;;;;;;2.67;2.40;;;;;;;20.58;100.00;100515.59;10293547;28;20038;-72
2023/08/03 14:53:28;;;;;;;5.10;2.80;;;;;;;20.48;100.00;100521.00;10276833;28;20054;-72
2023/08/03 14:58:29;;;;;;;2.25;1.92;;;;;;;20.40;100.00;100525.13;10275439;28;20039;-75
2023/08/03 15:03:29;;;;;;;17.92;3.38;;;;;;;20.42;100.00;100525.69;10275106;28;20442;-71
2023/08/03 15:08:29;;;;;;;9.00;3.47;;;;;;;20.61;100.00;100541.69;10274845;28;20046;-71
2023/08/03 15:13:30;;;;;;;6.32;3.00;;;;;;;20.77;100.00;100548.03;10291135;28;20483;-73
2023/08/03 15:18:30;;;;;;;2.97;2.38;;;;;;;20.16;100.00;100552.28;10290386;28;20071;-73
2023/08/03 15:23:31;;;;;;;7.30;3.20;;;;;;;19.60;100.00;100556.69;10292274;28;20034;-72
2023/08/03 15:28:31;;;;;;;4.13;3.10;;;;;;;19.63;100.00;100569.91;10290256;28;20042;-71
2023/08/03 15:33:32;;;;;;;5.00;2.75;;;;;;;19.96;100.00;100575.03;10274611;28;20400;-72
2023/08/03 15:38:34;;;;;;;4.85;2.58;;;;;;;19.89;100.00;100584.63;10292636;28;20480;-73
2023/08/03 15:43:35;;;;;;;8.00;2.85;;;;;;;19.95;100.00;100578.88;10274280;28;20061;-73
2023/08/03 15:48:35;;;;;;;20.13;4.18;;;;;;;20.24;100.00;100583.13;10290456;28;20054;-73
2023/08/03 15:53:36;;;;;;;7.25;2.50;;;;;;;20.21;100.00;100590.81;10292217;28;20394;-73
2023/08/03 15:58:36;;;;;;;5.85;2.90;;;;;;;20.10;100.00;100596.53;10290452;28;20039;-71
2023/08/03 16:03:39;;;;;;;5.68;2.88;;;;;;;19.90;100.00;100608.25;10291252;28;20117;-72
2023/08/03 16:08:41;;;;;;;10.18;3.10;;;;;;;19.63;100.00;100611.91;10290777;28;20134;-71
2023/08/03 16:13:41;;;;;;;6.18;3.47;;;;;;;19.34;100.00;100614.19;10290676;28;20054;-71
2023/08/03 16:18:42;;;;;;;6.88;2.60;;;;;;;18.79;100.00;100631.78;10289163;28;20117;-73
2023/08/03 16:23:42;;;;;;;10.73;3.10;;;;;;;18.11;100.00;100632.06;10291203;28;20451;-73
2023/08/03 16:28:43;;;;;;;5.88;3.03;;;;;;;17.99;100.00;100638.75;10294303;28;20101;-73
2023/08/03 16:33:43;;;;;;;3.97;3.55;;;;;;;18.26;100.00;100649.81;10297987;28;20043;-73
2023/08/03 16:38:44;;;;;;;4.53;2.90;;;;;;;18.47;100.00;100645.38;10280662;28;20055;-71
2023/08/03 16:43:44;;;;;;;6.15;3.15;;;;;;;18.43;100.00;100647.00;10282161;28;20443;-71
2023/08/03 16:48:45;;;;;;;3.90;2.58;;;;;;;18.62;100.00;100653.78;10284631;28;20031;-72
2023/08/03 16:53:45;;;;;;;3.80;1.85;;;;;;;18.75;100.00;100652.59;10279522;28;20038;-72
2023/08/03 16:58:46;;;;;;;10.20;2.83;;;;;;;18.76;100.00;100659.72;10297103;28;20062;-72
2023/08/03 17:03:46;;;;;;;3.53;2.50;;;;;;;18.51;100.00;100680.28;10296957;28;20034;-71
2023/08/03 17:08:47;;;;;;;2.35;2.15;;;;;;;18.37;100.00;100684.47;10279233;28;20386;-73
2023/08/03 17:13:47;;;;;;;2.03;1.92;;;;;;;18.40;100.00;100694.09;10296612;28;20038;-72
2023/08/03 17:18:47;;;;;;;4.43;2.60;;;;;;;18.62;100.00;100683.97;10297010;28;20046;-71
2023/08/03 17:23:48;;;;;;;6.07;3.45;;;;;;;18.49;100.00;100698.06;10279470;28;20047;-71
2023/08/03 17:28:48;;;;;;;16.75;4.05;;;;;;;18.21;100.00;100702.63;10295939;28;20042;-72
2023/08/03 17:33:48;;;;;;;6.55;2.72;;;;;;;18.08;100.00;100711.22;10295897;28;20050;-71
2023/08/03 17:38:49;;;;;;;8.20;3.47;;;;;;;18.01;100.00;100710.56;10295003;28;20058;-72
2023/08/03 17:43:49;;;;;;;17.33;3.72;;;;;;;17.99;100.00;100716.28;10294744;28;20034;-71
2023/08/03 17:48:50;;;;;;;6.82;3.63;;;;;;;18.02;100.00;100714.97;10293553;28;20054;-73
2023/08/03 17:53:52;;;;;;;5.55;3.40;;;;;;;17.97;100.00;100731.34;10276120;28;20062;-71
2023/08/03 17:58:52;;;;;;;8.93;3.55;;;;;;;17.97;100.00;100743.13;10294674;28;20046;-72
2023/08/03 18:03:53;;;;;;;10.50;4.32;;;;;;;17.95;100.00;100741.72;10294281;28;20386;-71
2023/08/03 18:08:54;;;;;;;18.65;4.38;;;;;;;17.94;100.00;100756.50;10293976;28;20125;-71
2023/08/03 18:13:54;;;;;;;15.77;4.30;;;;;;;17.84;100.00;100760.72;10292243;28;20118;-72
2023/08/03 18:18:55;;;;;;;13.63;4.55;;;;;;;17.77;100.00;100768.28;10294535;28;20031;-71
2023/08/03 18:23:55;;;;;;;8.45;4.55;;;;;;;17.75;100.00;100781.38;10277410;28;20134;-72
2023/08/03 18:28:56;;;;;;;10.25;4.70;;;;;;;17.59;100.00;100783.00;10276409;28;20113;-72
2023/08/03 18:33:56;;;;;;;14.55;6.90;;;;;;;17.38;100.00;100783.72;10259816;28;20470;-72
2023/08/03 18:38:57;;;;;;;27.92;5.40;;;;;;;17.27;100.00;100790.91;10276225;28;20062;-73
2023/08/03 18:43:57;;;;;;;16.38;5.57;;;;;;;17.18;100.00;100800.56;10275466;28;20043;-74
2023/08/03 18:48:59;;;;;;;7.55;4.40;;;;;;;17.16;100.00;100799.97;10277269;28;20057;-74
2023/08/03 18:53:59;;;;;;;10.18;4.38;;;;;;;17.14;100.00;100805.72;10292069;28;20104;-75
2023/08/03 18:59:00;;;;;;;6.32;4.00;;;;;;;17.17;100.00;100815.34;10293075;28;20035;-75
2023/08/03 19:04:00;;;;;;;11.52;5.10;;;;;;;17.17;100.00;100823.56;10292204;28;20044;-73
2023/08/03 19:09:01;;;;;;;9.90;4.57;;;;;;;17.16;100.00;100828.16;10292554;28;20042;-75
2023/08/03 19:14:01;;;;;;;12.73;3.80;;;;;;;17.15;100.00;100828.44;10294378;28;20050;-74
2023/08/03 19:19:02;;;;;;;14.02;4.45;;;;;;;17.13;100.00;100828.69;10298365;28;20045;-74
2023/08/03 19:24:03;;;;;;;5.45;4.18;;;;;;;17.06;100.00;100829.88;10294585;28;20038;-75
2023/08/03 19:29:03;;;;;;;11.65;5.13;;;;;;;16.87;100.00;100838.25;10290808;28;20482;-74
2023/08/03 19:34:03;;;;;;;10.00;4.30;;;;;;;16.78;100.00;100841.59;10292966;28;20027;-71
2023/08/03 19:39:04;;;;;;;10.57;5.10;;;;;;;16.67;100.00;100846.81;10292932;28;20086;-76
2023/08/03 19:44:04;;;;;;;11.65;4.93;;;;;;;16.55;100.00;100850.63;10293600;28;20078;-75
2023/08/03 19:49:04;;;;;;;17.92;5.07;;;;;;;16.35;100.00;100864.66;10292840;28;20470;-75
2023/08/03 19:54:05;;;;;;;7.97;4.22;;;;;;;16.18;100.00;100875.44;10275681;28;20042;-75
2023/08/03 19:59:05;;;;;;;8.50;5.28;;;;;;;16.04;100.00;100872.06;10290754;28;20518;-74
2023/08/03 20:04:06;;;;;;;7.90;4.57;;;;;;;15.92;100.00;100876.66;10295911;28;20084;-73
2023/08/03 20:09:06;;;;;;;20.65;7.40;;;;;;;15.80;100.00;100893.88;10300224;28;20058;-78
2023/08/03 20:14:06;;;;;;;7.47;4.90;;;;;;;15.69;100.00;100888.34;10299431;28;20109;-75
2023/08/03 20:19:07;;;;;;;9.10;3.72;;;;;;;15.66;100.00;100905.16;10302255;28;20045;-72
2023/08/03 20:24:11;;;;;;;10.05;3.63;;;;;;;15.58;100.00;100912.63;10298141;28;20471;-72
2023/08/03 20:29:12;;;;;;;5.13;3.80;;;;;;;15.49;100.00;100914.00;10298262;28;20030;-72
2023/08/03 20:34:12;;;;;;;18.08;4.40;;;;;;;15.44;100.00;100911.09;10265539;28;20458;-70
2023/08/03 20:39:13;;;;;;;10.23;4.65;;;;;;;15.37;100.00;100917.72;10298252;28;20051;-71
2023/08/03 20:44:13;;;;;;;6.65;4.03;;;;;;;15.35;100.00;100926.16;10280781;28;20122;-72
2023/08/03 20:49:14;;;;;;;24.05;4.15;;;;;;;15.43;100.00;100920.38;10298028;28;20125;-72
2023/08/03 20:54:14;;;;;;;13.50;5.53;;;;;;;15.51;100.00;100933.72;10296785;28;20035;-70
2023/08/03 20:59:15;;;;;;;8.02;3.85;;;;;;;15.49;100.00;100940.47;10296243;28;20085;-72
2023/08/03 21:04:16;;;;;;;11.85;7.90;;;;;;;15.61;100.00;100957.72;10296851;28;20066;-72
2023/08/03 21:09:16;;;;;;;13.65;5.30;;;;;;;15.74;100.00;100945.84;10262992;28;20181;-73
2023/08/03 21:14:16;;;;;;;12.82;4.70;;;;;;;15.72;100.00;100953.41;10278389;28;20140;-74
2023/08/03 21:19:17;;;;;;;14.18;3.85;;;;;;;15.62;100.00;100972.22;10296391;28;20039;-74
2023/08/03 21:24:17;;;;;;;4.63;3.67;;;;;;;15.59;100.00;100977.06;10297042;28;20039;-73
2023/08/03 21:29:18;;;;;;;31.65;4.53;;;;;;;15.58;100.00;100969.09;10296143;28;20038;-75
2023/08/03 21:34:18;;;;;;;11.32;3.60;;;;;;;15.63;100.00;100979.31;10295697;28;20232;-74
2023/08/03 21:39:19;;;;;;;7.10;3.30;;;;;;;15.62;100.00;100975.78;10293692;28;20055;-72
2023/08/03 21:44:19;;;;;;;7.35;2.85;;;;;;;15.68;100.00;100991.25;10280426;28;20042;-73
2023/08/03 21:49:20;;;;;;;7.43;3.75;;;;;;;15.63;100.00;100992.97;10282109;28;20039;-73
2023/08/03 21:54:20;;;;;;;10.27;3.85;;;;;;;15.52;100.00;101003.59;10297883;28;20042;-74
2023/08/03 21:59:21;;;;;;;12.88;3.90;;;;;;;15.51;100.00;101004.69;10295289;28;20081;-73
2023/08/03 22:04:21;;;;;;;9.35;4.32;;;;;;;15.64;100.00;101016.50;10294697;28;20035;-72
2023/08/03 22:09:22;;;;;;;4.93;2.92;;;;;;;15.67;100.00;101016.06;10294883;28;20063;-73
2023/08/03 22:14:22;;;;;;;10.63;3.50;;;;;;;15.64;100.00;101017.34;10294000;28;20486;-73
2023/08/03 22:19:23;;;;;;;13.05;3.65;;;;;;;15.58;100.00;101016.34;10294170;28;20151;-73
2023/08/03 22:24:23;;;;;;;6.15;3.33;;;;;;;15.59;100.00;101018.00;10293961;28;20470;-73
2023/08/03 22:29:23;;;;;;;15.13;4.82;;;;;;;15.63;100.00;101021.09;10294350;28;20118;-72
2023/08/03 22:34:24;;;;;;;7.90;3.60;;;;;;;15.71;100.00;101022.75;10294184;28;20050;-72
2023/08/03 22:39:24;;;;;;;14.52;4.07;;;;;;;15.73;100.00;101026.06;10276460;28;20388;-73
2023/08/03 22:44:25;;;;;;;9.20;5.10;;;;;;;15.77;100.00;101032.75;10293316;28;20193;-73
2023/08/03 22:49:26;;;;;;;16.88;4.53;;;;;;;15.79;100.00;101036.06;10276913;28;20070;-73